sensor_id;sensor_type;location;lat;lon;timestamp;pressure;altitude;pressure_sealevel;temperature;humidity
73341;BME280;61578;52.002;5.468;2023-04-07T00:00:05;101406.41;;;10.38;89.72
73341;BME280;61578;52.002;5.468;2023-04-07T00:00:37;101406.41;;;10.38;89.81
73341;BME280;61578;52.002;5.468;2023-04-07T00:01:08;101401.91;;;10.39;89.83
73341;BME280;61578;52.002;5.468;2023-04-07T00:01:38;101406.28;;;10.40;89.56
73341;BME280;61578;52.002;5.468;2023-04-07T00:02:09;101401.09;;;10.38;89.67
73341;BME280;61578;52.002;5.468;2023-04-07T00:02:41;101407.22;;;10.39;89.53
73341;BME280;61578;52.002;5.468;2023-04-07T00:03:12;101404.69;;;10.37;89.48
73341;BME280;61578;52.002;5.468;2023-04-07T00:03:42;101405.63;;;10.36;89.16
73341;BME280;61578;52.002;5.468;2023-04-07T00:04:16;101409.38;;;10.32;89.46
73341;BME280;61578;52.002;5.468;2023-04-07T00:04:47;101400.63;;;10.30;89.46
73341;BME280;61578;52.002;5.468;2023-04-07T00:05:17;101404.91;;;10.32;89.36
73341;BME280;61578;52.002;5.468;2023-04-07T00:05:48;101411.09;;;10.33;89.47
73341;BME280;61578;52.002;5.468;2023-04-07T00:06:19;101409.38;;;10.32;89.47
73341;BME280;61578;52.002;5.468;2023-04-07T00:06:49;101404.06;;;10.32;89.50
73341;BME280;61578;52.002;5.468;2023-04-07T00:07:23;101413.81;;;10.31;89.17
73341;BME280;61578;52.002;5.468;2023-04-07T00:07:54;101412.03;;;10.32;89.47
73341;BME280;61578;52.002;5.468;2023-04-07T00:08:24;101409.38;;;10.32;88.98
73341;BME280;61578;52.002;5.468;2023-04-07T00:08:55;101404.06;;;10.32;89.34
73341;BME280;61578;52.002;5.468;2023-04-07T00:09:26;101407.72;;;10.29;89.49
73341;BME280;61578;52.002;5.468;2023-04-07T00:09:56;101410.31;;;10.31;89.51
73341;BME280;61578;52.002;5.468;2023-04-07T00:10:28;101413.88;;;10.30;89.70
73341;BME280;61578;52.002;5.468;2023-04-07T00:10:58;101410.31;;;10.31;89.40
73341;BME280;61578;52.002;5.468;2023-04-07T00:11:38;101406.78;;;10.30;89.46
73341;BME280;61578;52.002;5.468;2023-04-07T00:12:09;101410.31;;;10.31;89.65
73341;BME280;61578;52.002;5.468;2023-04-07T00:12:39;101410.38;;;10.29;89.89
73341;BME280;61578;52.002;5.468;2023-04-07T00:13:10;101409.44;;;10.30;89.50
73341;BME280;61578;52.002;5.468;2023-04-07T00:13:41;101408.50;;;10.31;89.03
73341;BME280;61578;52.002;5.468;2023-04-07T00:14:12;101402.50;;;10.28;89.08
73341;BME280;61578;52.002;5.468;2023-04-07T00:14:43;101402.59;;;10.26;88.96
73341;BME280;61578;52.002;5.468;2023-04-07T00:15:13;101409.72;;;10.26;89.30
73341;BME280;61578;52.002;5.468;2023-04-07T00:15:45;101419.38;;;10.27;88.93
73341;BME280;61578;52.002;5.468;2023-04-07T00:16:16;101408.78;;;10.27;89.21
73341;BME280;61578;52.002;5.468;2023-04-07T00:16:49;101406.13;;;10.27;89.13
73341;BME280;61578;52.002;5.468;2023-04-07T00:17:23;101407.06;;;10.26;88.76
73341;BME280;61578;52.002;5.468;2023-04-07T00:17:53;101406.19;;;10.25;89.06
73341;BME280;61578;52.002;5.468;2023-04-07T00:18:24;101412.50;;;10.23;88.98
73341;BME280;61578;52.002;5.468;2023-04-07T00:18:58;101403.69;;;10.22;89.03
73341;BME280;61578;52.002;5.468;2023-04-07T00:19:28;101403.63;;;10.24;89.20
73341;BME280;61578;52.002;5.468;2023-04-07T00:20:02;101409.78;;;10.24;89.12
73341;BME280;61578;52.002;5.468;2023-04-07T00:20:33;101401.91;;;10.23;88.89
73341;BME280;61578;52.002;5.468;2023-04-07T00:21:04;101420.41;;;10.24;88.89
73341;BME280;61578;52.002;5.468;2023-04-07T00:21:35;101399.72;;;10.14;88.66
73341;BME280;61578;52.002;5.468;2023-04-07T00:22:05;101416.19;;;10.20;88.91
73341;BME280;61578;52.002;5.468;2023-04-07T00:22:39;101409.94;;;10.21;88.62
73341;BME280;61578;52.002;5.468;2023-04-07T00:23:13;101410.88;;;10.20;88.75
73341;BME280;61578;52.002;5.468;2023-04-07T00:23:43;101414.31;;;10.22;88.61
73341;BME280;61578;52.002;5.468;2023-04-07T00:24:14;101411.72;;;10.21;89.18
73341;BME280;61578;52.002;5.468;2023-04-07T00:24:45;101403.84;;;10.19;88.76
73341;BME280;61578;52.002;5.468;2023-04-07T00:25:15;101413.53;;;10.20;89.00
73341;BME280;61578;52.002;5.468;2023-04-07T00:25:49;101416.97;;;10.22;88.74
73341;BME280;61578;52.002;5.468;2023-04-07T00:26:20;101412.66;;;10.20;89.00
73341;BME280;61578;52.002;5.468;2023-04-07T00:26:50;101407.59;;;10.15;89.16
73341;BME280;61578;52.002;5.468;2023-04-07T00:27:21;101408.59;;;10.13;89.23
73341;BME280;61578;52.002;5.468;2023-04-07T00:27:55;101399.78;;;10.12;89.48
73341;BME280;61578;52.002;5.468;2023-04-07T00:28:28;101415.31;;;10.20;89.47
73341;BME280;61578;52.002;5.468;2023-04-07T00:28:59;101413.59;;;10.19;89.41
73341;BME280;61578;52.002;5.468;2023-04-07T00:29:30;101415.31;;;10.20;89.07
73341;BME280;61578;52.002;5.468;2023-04-07T00:30:01;101422.34;;;10.21;89.44
73341;BME280;61578;52.002;5.468;2023-04-07T00:30:33;101411.66;;;10.22;89.28
73341;BME280;61578;52.002;5.468;2023-04-07T00:31:04;101416.09;;;10.22;89.16
73341;BME280;61578;52.002;5.468;2023-04-07T00:31:37;101413.44;;;10.22;89.05
73341;BME280;61578;52.002;5.468;2023-04-07T00:32:08;101411.56;;;10.24;89.47
73341;BME280;61578;52.002;5.468;2023-04-07T00:32:39;101422.13;;;10.25;89.23
73341;BME280;61578;52.002;5.468;2023-04-07T00:33:09;101416.03;;;10.23;89.16
73341;BME280;61578;52.002;5.468;2023-04-07T00:33:40;101416.88;;;10.24;89.08
73341;BME280;61578;52.002;5.468;2023-04-07T00:34:11;101417.75;;;10.24;89.43
73341;BME280;61578;52.002;5.468;2023-04-07T00:34:42;101415.41;;;10.18;88.96
73341;BME280;61578;52.002;5.468;2023-04-07T00:35:12;101420.47;;;10.23;88.91
73341;BME280;61578;52.002;5.468;2023-04-07T00:35:43;101421.41;;;10.22;88.93
73341;BME280;61578;52.002;5.468;2023-04-07T00:36:14;101407.59;;;10.15;88.98
73341;BME280;61578;52.002;5.468;2023-04-07T00:36:45;101420.72;;;10.18;88.72
73341;BME280;61578;52.002;5.468;2023-04-07T00:37:21;101420.72;;;10.18;89.15
73341;BME280;61578;52.002;5.468;2023-04-07T00:37:52;101419.78;;;10.19;88.97
73341;BME280;61578;52.002;5.468;2023-04-07T00:38:22;101418.13;;;10.17;89.09
73341;BME280;61578;52.002;5.468;2023-04-07T00:38:53;101401.66;;;10.10;89.27
73341;BME280;61578;52.002;5.468;2023-04-07T00:39:24;101421.72;;;10.16;89.21
73341;BME280;61578;52.002;5.468;2023-04-07T00:39:56;101418.22;;;10.15;89.02
73341;BME280;61578;52.002;5.468;2023-04-07T00:40:28;101422.66;;;10.15;89.52
73341;BME280;61578;52.002;5.468;2023-04-07T00:40:59;101415.56;;;10.15;89.44
73341;BME280;61578;52.002;5.468;2023-04-07T00:41:33;101425.22;;;10.16;89.15
73341;BME280;61578;52.002;5.468;2023-04-07T00:42:08;101419.06;;;10.16;89.44
73341;BME280;61578;52.002;5.468;2023-04-07T00:42:38;101417.44;;;10.13;89.46
73341;BME280;61578;52.002;5.468;2023-04-07T00:43:09;101418.13;;;10.17;89.58
73341;BME280;61578;52.002;5.468;2023-04-07T00:43:40;101412.81;;;10.17;89.69
73341;BME280;61578;52.002;5.468;2023-04-07T00:44:12;101418.13;;;10.17;89.87
73341;BME280;61578;52.002;5.468;2023-04-07T00:44:43;101391.63;;;10.00;89.69
73341;BME280;61578;52.002;5.468;2023-04-07T00:45:14;101419.78;;;10.19;89.62
73341;BME280;61578;52.002;5.468;2023-04-07T00:45:47;101422.50;;;10.18;89.74
73341;BME280;61578;52.002;5.468;2023-04-07T00:46:22;101418.13;;;10.17;89.45
73341;BME280;61578;52.002;5.468;2023-04-07T00:46:53;101419.78;;;10.19;89.38
73341;BME280;61578;52.002;5.468;2023-04-07T00:47:24;101419.78;;;10.19;89.65
73341;BME280;61578;52.002;5.468;2023-04-07T00:47:56;101416.34;;;10.17;89.14
73341;BME280;61578;52.002;5.468;2023-04-07T00:48:28;101423.34;;;10.18;89.15
73341;BME280;61578;52.002;5.468;2023-04-07T00:48:59;101418.91;;;10.19;89.10
73341;BME280;61578;52.002;5.468;2023-04-07T00:49:30;101416.34;;;10.17;89.42
73341;BME280;61578;52.002;5.468;2023-04-07T00:50:03;101405.94;;;10.13;89.27
73341;BME280;61578;52.002;5.468;2023-04-07T00:50:35;101410.09;;;10.18;89.34
73341;BME280;61578;52.002;5.468;2023-04-07T00:51:06;101405.88;;;10.14;89.21
73341;BME280;61578;52.002;5.468;2023-04-07T00:51:37;101409.22;;;10.18;89.38
73341;BME280;61578;52.002;5.468;2023-04-07T00:52:08;101413.53;;;10.20;89.53
73341;BME280;61578;52.002;5.468;2023-04-07T00:52:45;101405.94;;;10.13;89.35
73341;BME280;61578;52.002;5.468;2023-04-07T00:53:16;101415.31;;;10.20;89.53
73341;BME280;61578;52.002;5.468;2023-04-07T00:53:48;101413.53;;;10.20;89.37
73341;BME280;61578;52.002;5.468;2023-04-07T00:54:21;101412.75;;;10.18;89.58
73341;BME280;61578;52.002;5.468;2023-04-07T00:54:54;101413.69;;;10.17;89.71
73341;BME280;61578;52.002;5.468;2023-04-07T00:55:25;101412.75;;;10.18;89.21
73341;BME280;61578;52.002;5.468;2023-04-07T00:55:55;101416.34;;;10.17;89.20
73341;BME280;61578;52.002;5.468;2023-04-07T00:56:26;101420.00;;;10.15;89.32
73341;BME280;61578;52.002;5.468;2023-04-07T00:56:57;101410.31;;;10.14;89.33
73341;BME280;61578;52.002;5.468;2023-04-07T00:57:29;101413.91;;;10.13;89.74
73341;BME280;61578;52.002;5.468;2023-04-07T00:57:59;101408.53;;;10.14;89.44
73341;BME280;61578;52.002;5.468;2023-04-07T00:58:30;101423.59;;;10.14;89.42
73341;BME280;61578;52.002;5.468;2023-04-07T00:59:03;101414.78;;;10.13;89.14
73341;BME280;61578;52.002;5.468;2023-04-07T00:59:37;101419.06;;;10.16;89.55
73341;BME280;61578;52.002;5.468;2023-04-07T01:00:08;101403.38;;;10.11;89.44
73341;BME280;61578;52.002;5.468;2023-04-07T01:01:12;101413.75;;;10.16;89.64
73341;BME280;61578;52.002;5.468;2023-04-07T01:03:08;101410.41;;;10.12;89.40
73341;BME280;61578;52.002;5.468;2023-04-07T01:03:58;101414.69;;;10.15;89.39
73341;BME280;61578;52.002;5.468;2023-04-07T01:04:57;101410.31;;;10.14;89.44
73341;BME280;61578;52.002;5.468;2023-04-07T01:05:52;101412.28;;;10.10;89.46
73341;BME280;61578;52.002;5.468;2023-04-07T01:06:30;101407.75;;;10.12;89.70
73341;BME280;61578;52.002;5.468;2023-04-07T01:07:17;101412.97;;;10.14;89.36
73341;BME280;61578;52.002;5.468;2023-04-07T01:08:14;101406.09;;;10.10;89.47
73341;BME280;61578;52.002;5.468;2023-04-07T01:09:02;101408.75;;;10.10;89.43
73341;BME280;61578;52.002;5.468;2023-04-07T01:09:42;101411.25;;;10.13;89.36
73341;BME280;61578;52.002;5.468;2023-04-07T01:10:31;101409.47;;;10.13;88.94
73341;BME280;61578;52.002;5.468;2023-04-07T01:11:33;101406.97;;;10.10;89.33
73341;BME280;61578;52.002;5.468;2023-04-07T01:12:20;101408.75;;;10.10;89.44
73341;BME280;61578;52.002;5.468;2023-04-07T01:13:05;101410.47;;;10.11;89.30
73341;BME280;61578;52.002;5.468;2023-04-07T01:13:49;101409.69;;;10.09;88.98
73341;BME280;61578;52.002;5.468;2023-04-07T01:14:23;101412.53;;;10.06;89.34
73341;BME280;61578;52.002;5.468;2023-04-07T01:15:13;101409.69;;;10.09;88.87
73341;BME280;61578;52.002;5.468;2023-04-07T01:15:51;101409.81;;;10.07;89.16
73341;BME280;61578;52.002;5.468;2023-04-07T01:16:30;101413.28;;;10.08;88.92
73341;BME280;61578;52.002;5.468;2023-04-07T01:17:06;101414.25;;;10.07;88.50
73341;BME280;61578;52.002;5.468;2023-04-07T01:17:52;101410.81;;;10.05;89.04
73341;BME280;61578;52.002;5.468;2023-04-07T01:18:35;101412.53;;;10.06;88.91
73341;BME280;61578;52.002;5.468;2023-04-07T01:20:04;101407.22;;;10.06;89.26
73341;BME280;61578;52.002;5.468;2023-04-07T01:20:46;101418.84;;;10.03;88.90
73341;BME280;61578;52.002;5.468;2023-04-07T01:21:25;101416.97;;;10.05;88.95
73341;BME280;61578;52.002;5.468;2023-04-07T01:22:06;101416.28;;;10.02;88.81
73341;BME280;61578;52.002;5.468;2023-04-07T01:22:45;101417.06;;;10.04;89.08
73341;BME280;61578;52.002;5.468;2023-04-07T01:23:32;101414.31;;;10.05;89.26
73341;BME280;61578;52.002;5.468;2023-04-07T01:24:39;101412.44;;;10.07;88.70
73341;BME280;61578;52.002;5.468;2023-04-07T01:26:32;101414.56;;;10.01;89.10
73341;BME280;61578;52.002;5.468;2023-04-07T01:28:09;101409.41;;;9.97;88.90
73341;BME280;61578;52.002;5.468;2023-04-07T01:29:53;101418.13;;;10.00;89.33
73341;BME280;61578;52.002;5.468;2023-04-07T01:30:31;101412.84;;;10.00;89.33
73341;BME280;61578;52.002;5.468;2023-04-07T01:31:09;101417.19;;;10.01;89.07
73341;BME280;61578;52.002;5.468;2023-04-07T01:31:44;101416.28;;;10.02;89.23
73341;BME280;61578;52.002;5.468;2023-04-07T01:32:19;101421.66;;;10.00;88.90
73341;BME280;61578;52.002;5.468;2023-04-07T01:32:52;101416.34;;;10.00;89.02
73341;BME280;61578;52.002;5.468;2023-04-07T01:33:30;101421.56;;;10.02;88.84
73341;BME280;61578;52.002;5.468;2023-04-07T01:34:03;101413.78;;;9.98;88.97
73341;BME280;61578;52.002;5.468;2023-04-07T01:34:37;101418.13;;;10.00;88.73
73341;BME280;61578;52.002;5.468;2023-04-07T01:35:12;101420.00;;;9.97;89.01
73341;BME280;61578;52.002;5.468;2023-04-07T01:35:47;101417.34;;;9.97;89.19
73341;BME280;61578;52.002;5.468;2023-04-07T01:36:21;101418.13;;;10.00;88.85
73341;BME280;61578;52.002;5.468;2023-04-07T01:36:58;101413.03;;;9.96;88.65
73341;BME280;61578;52.002;5.468;2023-04-07T01:37:32;101419.00;;;10.00;88.94
73341;BME280;61578;52.002;5.468;2023-04-07T01:38:08;101420.78;;;10.00;88.82
73341;BME280;61578;52.002;5.468;2023-04-07T01:38:43;101414.56;;;10.01;88.72
73341;BME280;61578;52.002;5.468;2023-04-07T01:39:17;101408.56;;;9.97;88.87
73341;BME280;61578;52.002;5.468;2023-04-07T01:39:49;101409.41;;;9.97;88.73
73341;BME280;61578;52.002;5.468;2023-04-07T01:40:21;101414.69;;;9.97;89.17
73341;BME280;61578;52.002;5.468;2023-04-07T01:40:55;101410.25;;;9.98;88.91
73341;BME280;61578;52.002;5.468;2023-04-07T01:41:29;101420.88;;;9.98;89.14
73341;BME280;61578;52.002;5.468;2023-04-07T01:42:04;101415.56;;;9.98;89.11
73341;BME280;61578;52.002;5.468;2023-04-07T01:42:38;101416.53;;;9.97;88.91
73341;BME280;61578;52.002;5.468;2023-04-07T01:43:12;101417.47;;;9.96;88.51
73341;BME280;61578;52.002;5.468;2023-04-07T01:43:46;101421.91;;;9.95;88.81
73341;BME280;61578;52.002;5.468;2023-04-07T01:44:19;101430.72;;;9.96;88.90
73341;BME280;61578;52.002;5.468;2023-04-07T01:44:52;101420.19;;;9.94;88.61
73341;BME280;61578;52.002;5.468;2023-04-07T01:45:26;101422.06;;;9.92;89.03
73341;BME280;61578;52.002;5.468;2023-04-07T01:46:02;101411.59;;;9.89;89.12
73341;BME280;61578;52.002;5.468;2023-04-07T01:46:34;101422.84;;;9.94;88.61
73341;BME280;61578;52.002;5.468;2023-04-07T01:47:05;101424.56;;;9.95;88.82
73341;BME280;61578;52.002;5.468;2023-04-07T01:47:38;101427.22;;;9.95;88.96
73341;BME280;61578;52.002;5.468;2023-04-07T01:48:11;101430.63;;;9.97;88.67
73341;BME280;61578;52.002;5.468;2023-04-07T01:48:43;101426.34;;;9.95;89.09
73341;BME280;61578;52.002;5.468;2023-04-07T01:49:14;101415.09;;;9.90;89.02
73341;BME280;61578;52.002;5.468;2023-04-07T01:49:50;101434.84;;;10.02;89.17
73341;BME280;61578;52.002;5.468;2023-04-07T01:50:23;101429.69;;;9.98;88.79
73341;BME280;61578;52.002;5.468;2023-04-07T01:50:56;101425.31;;;9.97;88.83
73341;BME280;61578;52.002;5.468;2023-04-07T01:51:29;101430.63;;;9.97;89.17
73341;BME280;61578;52.002;5.468;2023-04-07T01:52:03;101429.78;;;9.97;88.90
73341;BME280;61578;52.002;5.468;2023-04-07T01:52:37;101428.06;;;9.96;88.51
73341;BME280;61578;52.002;5.468;2023-04-07T01:53:10;101428.94;;;9.96;88.40
73341;BME280;61578;52.002;5.468;2023-04-07T01:53:42;101430.00;;;9.92;88.58
73341;BME280;61578;52.002;5.468;2023-04-07T01:54:13;101432.53;;;9.95;88.69
73341;BME280;61578;52.002;5.468;2023-04-07T01:54:45;101426.34;;;9.95;88.95
73341;BME280;61578;52.002;5.468;2023-04-07T01:55:19;101428.94;;;9.96;88.91
73341;BME280;61578;52.002;5.468;2023-04-07T01:55:52;101427.28;;;9.94;89.01
73341;BME280;61578;52.002;5.468;2023-04-07T01:56:26;101433.38;;;9.96;88.54
73341;BME280;61578;52.002;5.468;2023-04-07T01:56:57;101421.91;;;9.95;88.82
73341;BME280;61578;52.002;5.468;2023-04-07T01:57:27;101432.59;;;9.94;88.70
73341;BME280;61578;52.002;5.468;2023-04-07T01:58:05;101428.28;;;9.91;88.64
73341;BME280;61578;52.002;5.468;2023-04-07T01:58:36;101427.38;;;9.92;88.81
73341;BME280;61578;52.002;5.468;2023-04-07T01:59:07;101426.44;;;9.93;88.80
73341;BME280;61578;52.002;5.468;2023-04-07T01:59:38;101426.44;;;9.93;88.74
73341;BME280;61578;52.002;5.468;2023-04-07T02:00:09;101428.16;;;9.94;88.98
73341;BME280;61578;52.002;5.468;2023-04-07T02:00:40;101431.59;;;9.96;88.88
73341;BME280;61578;52.002;5.468;2023-04-07T02:01:12;101428.06;;;9.96;88.88
73341;BME280;61578;52.002;5.468;2023-04-07T02:01:44;101426.34;;;9.95;88.79
73341;BME280;61578;52.002;5.468;2023-04-07T02:02:18;101428.22;;;9.93;88.87
73341;BME280;61578;52.002;5.468;2023-04-07T02:02:58;101417.84;;;9.88;88.72
73341;BME280;61578;52.002;5.468;2023-04-07T02:03:52;101427.38;;;9.92;88.75
73341;BME280;61578;52.002;5.468;2023-04-07T02:04:36;101425.50;;;9.94;88.86
73341;BME280;61578;52.002;5.468;2023-04-07T02:05:19;101430.88;;;9.93;88.48
73341;BME280;61578;52.002;5.468;2023-04-07T02:05:54;101429.94;;;9.94;88.76
73341;BME280;61578;52.002;5.468;2023-04-07T02:06:34;101415.38;;;9.85;88.60
73341;BME280;61578;52.002;5.468;2023-04-07T02:07:19;101430.81;;;9.94;88.33
73341;BME280;61578;52.002;5.468;2023-04-07T02:08:01;101427.22;;;9.95;88.34
73341;BME280;61578;52.002;5.468;2023-04-07T02:08:41;101419.34;;;9.94;88.40
73341;BME280;61578;52.002;5.468;2023-04-07T02:09:21;101430.88;;;9.93;88.64
73341;BME280;61578;52.002;5.468;2023-04-07T02:09:59;101429.16;;;9.92;88.65
73341;BME280;61578;52.002;5.468;2023-04-07T02:10:36;101426.44;;;9.93;88.33
73341;BME280;61578;52.002;5.468;2023-04-07T02:11:10;101426.44;;;9.93;88.68
73341;BME280;61578;52.002;5.468;2023-04-07T02:11:44;101423.78;;;9.93;88.45
73341;BME280;61578;52.002;5.468;2023-04-07T02:12:16;101428.16;;;9.94;88.60
73341;BME280;61578;52.002;5.468;2023-04-07T02:12:47;101425.56;;;9.93;88.48
73341;BME280;61578;52.002;5.468;2023-04-07T02:13:19;101428.22;;;9.93;88.34
73341;BME280;61578;52.002;5.468;2023-04-07T02:13:55;101430.94;;;9.91;88.37
73341;BME280;61578;52.002;5.468;2023-04-07T02:14:27;101428.28;;;9.91;89.08
73341;BME280;61578;52.002;5.468;2023-04-07T02:14:59;101428.16;;;9.94;88.74
73341;BME280;61578;52.002;5.468;2023-04-07T02:15:30;101424.56;;;9.95;88.39
73341;BME280;61578;52.002;5.468;2023-04-07T02:16:01;101426.28;;;9.96;88.65
73341;BME280;61578;52.002;5.468;2023-04-07T02:16:34;101424.56;;;9.95;88.37
73341;BME280;61578;52.002;5.468;2023-04-07T02:17:08;101430.72;;;9.96;88.58
73341;BME280;61578;52.002;5.468;2023-04-07T02:17:43;101417.94;;;9.87;88.59
73341;BME280;61578;52.002;5.468;2023-04-07T02:18:19;101427.97;;;9.97;88.69
73341;BME280;61578;52.002;5.468;2023-04-07T02:18:51;101424.63;;;9.94;88.56
73341;BME280;61578;52.002;5.468;2023-04-07T02:19:23;101425.41;;;9.96;88.72
73341;BME280;61578;52.002;5.468;2023-04-07T02:19:57;101428.16;;;9.94;88.64
73341;BME280;61578;52.002;5.468;2023-04-07T02:20:31;101427.38;;;9.92;88.59
73341;BME280;61578;52.002;5.468;2023-04-07T02:21:04;101430.00;;;9.92;88.70
73341;BME280;61578;52.002;5.468;2023-04-07T02:21:39;101430.94;;;9.91;88.42
73341;BME280;61578;52.002;5.468;2023-04-07T02:22:14;101430.88;;;9.93;88.66
73341;BME280;61578;52.002;5.468;2023-04-07T02:22:49;101429.22;;;9.90;88.44
73341;BME280;61578;52.002;5.468;2023-04-07T02:23:20;101424.94;;;9.88;88.28
73341;BME280;61578;52.002;5.468;2023-04-07T02:23:51;101433.53;;;9.93;88.71
73341;BME280;61578;52.002;5.468;2023-04-07T02:24:22;101430.81;;;9.94;88.51
73341;BME280;61578;52.002;5.468;2023-04-07T02:24:52;101428.22;;;9.93;88.91
73341;BME280;61578;52.002;5.468;2023-04-07T02:25:29;101438.75;;;9.94;88.27
73341;BME280;61578;52.002;5.468;2023-04-07T02:26:01;101430.88;;;9.93;88.04
73341;BME280;61578;52.002;5.468;2023-04-07T02:26:35;101427.50;;;9.89;88.23
73341;BME280;61578;52.002;5.468;2023-04-07T02:27:06;101436.09;;;9.94;88.04
73341;BME280;61578;52.002;5.468;2023-04-07T02:27:43;101432.53;;;9.95;88.61
73341;BME280;61578;52.002;5.468;2023-04-07T02:28:14;101436.09;;;9.94;88.27
73341;BME280;61578;52.002;5.468;2023-04-07T02:28:48;101437.81;;;9.95;88.51
73341;BME280;61578;52.002;5.468;2023-04-07T02:29:18;101436.97;;;9.95;88.84
73341;BME280;61578;52.002;5.468;2023-04-07T02:29:49;101430.94;;;9.91;88.60
73341;BME280;61578;52.002;5.468;2023-04-07T02:30:21;101434.06;;;10.00;88.60
73341;BME280;61578;52.002;5.468;2023-04-07T02:30:55;101432.34;;;9.98;88.75
73341;BME280;61578;52.002;5.468;2023-04-07T02:31:26;101438.56;;;9.97;88.55
73341;BME280;61578;52.002;5.468;2023-04-07T02:31:56;101439.44;;;9.98;88.79
73341;BME280;61578;52.002;5.468;2023-04-07T02:32:27;101434.06;;;10.00;88.37
73341;BME280;61578;52.002;5.468;2023-04-07T02:33:01;101440.28;;;9.98;88.24
73341;BME280;61578;52.002;5.468;2023-04-07T02:33:31;101430.72;;;9.96;88.65
73341;BME280;61578;52.002;5.468;2023-04-07T02:34:02;101442.09;;;9.98;88.76
73341;BME280;61578;52.002;5.468;2023-04-07T02:34:33;101436.88;;;9.96;88.56
73341;BME280;61578;52.002;5.468;2023-04-07T02:35:04;101436.78;;;9.98;88.58
73341;BME280;61578;52.002;5.468;2023-04-07T02:35:35;101435.09;;;9.97;88.97
73341;BME280;61578;52.002;5.468;2023-04-07T02:36:06;101442.81;;;10.02;88.61
73341;BME280;61578;52.002;5.468;2023-04-07T02:36:37;101432.34;;;9.98;88.56
73341;BME280;61578;52.002;5.468;2023-04-07T02:37:08;101432.34;;;9.98;88.77
73341;BME280;61578;52.002;5.468;2023-04-07T02:37:39;101439.53;;;9.96;88.35
73341;BME280;61578;52.002;5.468;2023-04-07T02:38:13;101434.25;;;9.96;88.55
73341;BME280;61578;52.002;5.468;2023-04-07T02:38:43;101440.41;;;9.97;88.86
73341;BME280;61578;52.002;5.468;2023-04-07T02:39:14;101435.09;;;9.97;89.02
73341;BME280;61578;52.002;5.468;2023-04-07T02:39:45;101437.56;;;10.00;88.61
73341;BME280;61578;52.002;5.468;2023-04-07T02:40:16;101440.22;;;10.00;88.27
73341;BME280;61578;52.002;5.468;2023-04-07T02:40:47;101434.06;;;10.00;88.47
73341;BME280;61578;52.002;5.468;2023-04-07T02:41:17;101435.94;;;9.97;88.27
73341;BME280;61578;52.002;5.468;2023-04-07T02:41:48;101431.47;;;9.98;88.36
73341;BME280;61578;52.002;5.468;2023-04-07T02:42:19;101437.66;;;9.98;88.65
73341;BME280;61578;52.002;5.468;2023-04-07T02:42:49;101434.91;;;10.00;88.64
73341;BME280;61578;52.002;5.468;2023-04-07T02:43:23;101434.84;;;10.02;88.97
73341;BME280;61578;52.002;5.468;2023-04-07T02:43:54;101440.16;;;10.02;88.77
73341;BME280;61578;52.002;5.468;2023-04-07T02:44:25;101433.75;;;10.06;88.57
73341;BME280;61578;52.002;5.468;2023-04-07T02:44:56;101431.47;;;9.98;88.59
73341;BME280;61578;52.002;5.468;2023-04-07T02:45:27;101432.19;;;10.02;88.76
73341;BME280;61578;52.002;5.468;2023-04-07T02:46:00;101432.19;;;10.02;88.60
73341;BME280;61578;52.002;5.468;2023-04-07T02:46:31;101428.75;;;10.00;88.76
73341;BME280;61578;52.002;5.468;2023-04-07T02:47:02;101435.63;;;10.04;88.56
73341;BME280;61578;52.002;5.468;2023-04-07T02:47:33;101439.22;;;10.03;88.62
73341;BME280;61578;52.002;5.468;2023-04-07T02:48:04;101438.50;;;9.99;88.21
73341;BME280;61578;52.002;5.468;2023-04-07T02:48:35;101438.56;;;9.97;88.38
73341;BME280;61578;52.002;5.468;2023-04-07T02:49:06;101431.47;;;9.98;88.38
73341;BME280;61578;52.002;5.468;2023-04-07T02:49:37;101432.53;;;9.95;88.68
73341;BME280;61578;52.002;5.468;2023-04-07T02:50:08;101433.28;;;9.97;88.34
73341;BME280;61578;52.002;5.468;2023-04-07T02:50:39;101442.28;;;9.95;88.22
73341;BME280;61578;52.002;5.468;2023-04-07T02:51:11;101443.13;;;9.95;88.37
73341;BME280;61578;52.002;5.468;2023-04-07T02:51:41;101423.06;;;9.90;88.41
73341;BME280;61578;52.002;5.468;2023-04-07T02:52:12;101442.09;;;9.98;88.62
73341;BME280;61578;52.002;5.468;2023-04-07T02:52:43;101439.53;;;9.96;88.23
73341;BME280;61578;52.002;5.468;2023-04-07T02:53:13;101422.38;;;9.86;88.58
73341;BME280;61578;52.002;5.468;2023-04-07T02:53:44;101433.28;;;9.97;88.18
73341;BME280;61578;52.002;5.468;2023-04-07T02:54:15;101440.41;;;9.97;88.53
73341;BME280;61578;52.002;5.468;2023-04-07T02:54:46;101439.63;;;9.95;88.54
73341;BME280;61578;52.002;5.468;2023-04-07T02:55:17;101441.41;;;9.94;88.27
73341;BME280;61578;52.002;5.468;2023-04-07T02:55:47;101437.03;;;9.93;88.45
73341;BME280;61578;52.002;5.468;2023-04-07T02:56:18;101423.31;;;9.85;88.77
73341;BME280;61578;52.002;5.468;2023-04-07T02:56:49;101430.81;;;9.94;88.55
73341;BME280;61578;52.002;5.468;2023-04-07T02:57:20;101425.91;;;9.87;88.66
73341;BME280;61578;52.002;5.468;2023-04-07T02:57:51;101439.63;;;9.95;88.44
73341;BME280;61578;52.002;5.468;2023-04-07T02:58:22;101439.69;;;9.93;88.67
73341;BME280;61578;52.002;5.468;2023-04-07T02:58:52;101428.22;;;9.93;88.63
73341;BME280;61578;52.002;5.468;2023-04-07T02:59:23;101434.38;;;9.93;88.54
73341;BME280;61578;52.002;5.468;2023-04-07T02:59:54;101432.53;;;9.95;88.47
73341;BME280;61578;52.002;5.468;2023-04-07T03:00:27;101435.16;;;9.95;88.46
73341;BME280;61578;52.002;5.468;2023-04-07T03:01:00;101429.09;;;9.93;88.32
73341;BME280;61578;52.002;5.468;2023-04-07T03:01:31;101436.19;;;9.93;88.19
73341;BME280;61578;52.002;5.468;2023-04-07T03:02:04;101437.91;;;9.94;88.34
73341;BME280;61578;52.002;5.468;2023-04-07T03:02:35;101438.75;;;9.94;88.77
73341;BME280;61578;52.002;5.468;2023-04-07T03:03:06;101438.75;;;9.94;88.35